sensor_id;sensor_type;location;lat;lon;timestamp;P1;durP1;ratioP1;P2;durP2;ratioP2
14088;SDS011;7120;52.890;6.040;2022-12-18T00:02:21;115.40;;;42.10;;
14088;SDS011;7120;52.890;6.040;2022-12-18T00:04:47;108.70;;;40.67;;
14088;SDS011;7120;52.890;6.040;2022-12-18T00:07:12;123.53;;;43.17;;
14088;SDS011;7120;52.890;6.040;2022-12-18T00:09:37;126.57;;;44.10;;
14088;SDS011;7120;52.890;6.040;2022-12-18T00:12:03;112.33;;;41.63;;
14088;SDS011;7120;52.890;6.040;2022-12-18T00:14:28;113.07;;;41.77;;
14088;SDS011;7120;52.890;6.040;2022-12-18T00:16:54;109.00;;;40.17;;
14088;SDS011;7120;52.890;6.040;2022-12-18T00:19:19;92.57;;;35.50;;
14088;SDS011;7120;52.890;6.040;2022-12-18T00:21:44;116.70;;;43.33;;
14088;SDS011;7120;52.890;6.040;2022-12-18T00:24:10;114.07;;;41.47;;
14088;SDS011;7120;52.890;6.040;2022-12-18T00:26:37;107.07;;;38.50;;
14088;SDS011;7120;52.890;6.040;2022-12-18T00:29:05;105.47;;;38.77;;
14088;SDS011;7120;52.890;6.040;2022-12-18T00:31:40;105.20;;;37.67;;
14088;SDS011;7120;52.890;6.040;2022-12-18T00:34:08;107.17;;;41.00;;
14088;SDS011;7120;52.890;6.040;2022-12-18T00:36:36;107.43;;;39.70;;
14088;SDS011;7120;52.890;6.040;2022-12-18T00:39:02;109.70;;;37.27;;
14088;SDS011;7120;52.890;6.040;2022-12-18T00:41:29;106.57;;;39.07;;
14088;SDS011;7120;52.890;6.040;2022-12-18T00:44:14;104.17;;;39.60;;
14088;SDS011;7120;52.890;6.040;2022-12-18T00:46:42;100.70;;;37.70;;
14088;SDS011;7120;52.890;6.040;2022-12-18T00:49:08;109.27;;;38.53;;
14088;SDS011;7120;52.890;6.040;2022-12-18T00:51:33;102.70;;;37.30;;
14088;SDS011;7120;52.890;6.040;2022-12-18T00:53:59;96.67;;;36.27;;
14088;SDS011;7120;52.890;6.040;2022-12-18T00:56:24;90.00;;;35.17;;
14088;SDS011;7120;52.890;6.040;2022-12-18T00:58:50;97.23;;;34.90;;
14088;SDS011;7120;52.890;6.040;2022-12-18T01:01:16;97.60;;;37.70;;
14088;SDS011;7120;52.890;6.040;2022-12-18T01:03:41;96.00;;;36.17;;
14088;SDS011;7120;52.890;6.040;2022-12-18T01:06:08;98.70;;;36.30;;
14088;SDS011;7120;52.890;6.040;2022-12-18T01:08:36;106.80;;;38.73;;
14088;SDS011;7120;52.890;6.040;2022-12-18T01:11:13;97.10;;;36.30;;
14088;SDS011;7120;52.890;6.040;2022-12-18T01:13:40;92.53;;;34.87;;
14088;SDS011;7120;52.890;6.040;2022-12-18T01:16:06;85.47;;;34.47;;
14088;SDS011;7120;52.890;6.040;2022-12-18T01:18:32;93.60;;;35.43;;
14088;SDS011;7120;52.890;6.040;2022-12-18T01:20:57;83.93;;;33.80;;
14088;SDS011;7120;52.890;6.040;2022-12-18T01:23:23;85.90;;;35.47;;
14088;SDS011;7120;52.890;6.040;2022-12-18T01:25:49;88.40;;;35.13;;
14088;SDS011;7120;52.890;6.040;2022-12-18T01:28:14;85.20;;;33.43;;
14088;SDS011;7120;52.890;6.040;2022-12-18T01:30:40;87.13;;;34.03;;
14088;SDS011;7120;52.890;6.040;2022-12-18T01:33:05;83.43;;;33.57;;
14088;SDS011;7120;52.890;6.040;2022-12-18T01:35:31;95.30;;;35.93;;
14088;SDS011;7120;52.890;6.040;2022-12-18T01:37:56;92.97;;;35.70;;
14088;SDS011;7120;52.890;6.040;2022-12-18T01:40:23;101.60;;;38.33;;
14088;SDS011;7120;52.890;6.040;2022-12-18T01:42:51;94.17;;;36.70;;
14088;SDS011;7120;52.890;6.040;2022-12-18T01:47:49;91.33;;;38.13;;
14088;SDS011;7120;52.890;6.040;2022-12-18T01:53:15;89.80;;;35.33;;
14088;SDS011;7120;52.890;6.040;2022-12-18T01:55:45;86.43;;;35.27;;
14088;SDS011;7120;52.890;6.040;2022-12-18T01:58:13;88.23;;;37.87;;
14088;SDS011;7120;52.890;6.040;2022-12-18T02:00:39;85.47;;;36.80;;
14088;SDS011;7120;52.890;6.040;2022-12-18T02:03:05;96.47;;;38.57;;
14088;SDS011;7120;52.890;6.040;2022-12-18T02:11:08;99.60;;;37.93;;
14088;SDS011;7120;52.890;6.040;2022-12-18T02:19:51;99.30;;;39.23;;
14088;SDS011;7120;52.890;6.040;2022-12-18T02:25:17;98.27;;;39.20;;
14088;SDS011;7120;52.890;6.040;2022-12-18T02:28:04;99.13;;;39.07;;
14088;SDS011;7120;52.890;6.040;2022-12-18T02:30:34;93.83;;;40.37;;
14088;SDS011;7120;52.890;6.040;2022-12-18T02:33:03;92.73;;;38.33;;
14088;SDS011;7120;52.890;6.040;2022-12-18T02:35:31;95.40;;;39.40;;
14088;SDS011;7120;52.890;6.040;2022-12-18T02:37:58;90.77;;;38.77;;
14088;SDS011;7120;52.890;6.040;2022-12-18T02:40:24;93.13;;;39.27;;
14088;SDS011;7120;52.890;6.040;2022-12-18T02:42:52;84.43;;;37.13;;
14088;SDS011;7120;52.890;6.040;2022-12-18T02:45:17;87.37;;;37.97;;
14088;SDS011;7120;52.890;6.040;2022-12-18T02:47:43;90.57;;;37.17;;
14088;SDS011;7120;52.890;6.040;2022-12-18T02:50:22;92.33;;;39.50;;
14088;SDS011;7120;52.890;6.040;2022-12-18T02:53:10;86.20;;;38.13;;
14088;SDS011;7120;52.890;6.040;2022-12-18T02:59:13;83.17;;;36.83;;
14088;SDS011;7120;52.890;6.040;2022-12-18T03:01:50;95.97;;;38.63;;
14088;SDS011;7120;52.890;6.040;2022-12-18T03:04:42;83.20;;;36.17;;
14088;SDS011;7120;52.890;6.040;2022-12-18T03:07:18;94.00;;;37.23;;
14088;SDS011;7120;52.890;6.040;2022-12-18T03:09:49;85.87;;;36.63;;
14088;SDS011;7120;52.890;6.040;2022-12-18T03:12:31;79.40;;;35.57;;
14088;SDS011;7120;52.890;6.040;2022-12-18T03:15:34;83.50;;;35.00;;
14088;SDS011;7120;52.890;6.040;2022-12-18T03:17:59;78.20;;;33.27;;
14088;SDS011;7120;52.890;6.040;2022-12-18T03:20:28;79.53;;;34.63;;
14088;SDS011;7120;52.890;6.040;2022-12-18T03:22:57;72.07;;;33.90;;
14088;SDS011;7120;52.890;6.040;2022-12-18T03:25:27;73.83;;;32.73;;
14088;SDS011;7120;52.890;6.040;2022-12-18T03:27:55;67.17;;;31.53;;
14088;SDS011;7120;52.890;6.040;2022-12-18T03:30:24;68.47;;;31.33;;
14088;SDS011;7120;52.890;6.040;2022-12-18T03:33:05;65.87;;;32.83;;
14088;SDS011;7120;52.890;6.040;2022-12-18T03:35:35;67.03;;;30.50;;
14088;SDS011;7120;52.890;6.040;2022-12-18T03:38:04;62.80;;;30.27;;
14088;SDS011;7120;52.890;6.040;2022-12-18T03:40:32;64.57;;;29.40;;
14088;SDS011;7120;52.890;6.040;2022-12-18T03:43:08;63.07;;;29.70;;
14088;SDS011;7120;52.890;6.040;2022-12-18T03:45:42;60.70;;;30.30;;
14088;SDS011;7120;52.890;6.040;2022-12-18T03:48:25;61.30;;;29.83;;
14088;SDS011;7120;52.890;6.040;2022-12-18T03:50:57;61.30;;;29.17;;
14088;SDS011;7120;52.890;6.040;2022-12-18T03:53:38;62.13;;;30.00;;
14088;SDS011;7120;52.890;6.040;2022-12-18T03:56:11;66.23;;;29.43;;
14088;SDS011;7120;52.890;6.040;2022-12-18T03:58:40;63.30;;;29.83;;
14088;SDS011;7120;52.890;6.040;2022-12-18T04:01:07;63.70;;;29.10;;
14088;SDS011;7120;52.890;6.040;2022-12-18T04:03:36;60.33;;;29.17;;
14088;SDS011;7120;52.890;6.040;2022-12-18T04:06:02;63.50;;;29.00;;
14088;SDS011;7120;52.890;6.040;2022-12-18T04:08:28;59.43;;;27.90;;
14088;SDS011;7120;52.890;6.040;2022-12-18T04:10:54;55.33;;;28.13;;
14088;SDS011;7120;52.890;6.040;2022-12-18T04:13:24;64.87;;;28.47;;
14088;SDS011;7120;52.890;6.040;2022-12-18T04:15:52;67.97;;;28.93;;
14088;SDS011;7120;52.890;6.040;2022-12-18T04:18:18;56.77;;;27.23;;
14088;SDS011;7120;52.890;6.040;2022-12-18T04:20:43;52.50;;;26.93;;
14088;SDS011;7120;52.890;6.040;2022-12-18T04:23:09;54.87;;;26.87;;
14088;SDS011;7120;52.890;6.040;2022-12-18T04:25:34;53.50;;;27.33;;
14088;SDS011;7120;52.890;6.040;2022-12-18T04:28:00;51.67;;;26.73;;
14088;SDS011;7120;52.890;6.040;2022-12-18T04:30:25;50.67;;;27.67;;
14088;SDS011;7120;52.890;6.040;2022-12-18T04:32:50;51.10;;;26.07;;
14088;SDS011;7120;52.890;6.040;2022-12-18T04:35:16;55.23;;;27.07;;
14088;SDS011;7120;52.890;6.040;2022-12-18T04:37:41;57.50;;;27.10;;
14088;SDS011;7120;52.890;6.040;2022-12-18T04:40:07;50.93;;;26.27;;
14088;SDS011;7120;52.890;6.040;2022-12-18T04:42:32;58.83;;;26.37;;
14088;SDS011;7120;52.890;6.040;2022-12-18T04:44:58;52.47;;;27.20;;
14088;SDS011;7120;52.890;6.040;2022-12-18T04:47:23;45.27;;;24.03;;
14088;SDS011;7120;52.890;6.040;2022-12-18T04:49:48;47.67;;;24.87;;
14088;SDS011;7120;52.890;6.040;2022-12-18T04:52:15;53.10;;;24.47;;
14088;SDS011;7120;52.890;6.040;2022-12-18T04:54:40;46.00;;;24.63;;
14088;SDS011;7120;52.890;6.040;2022-12-18T04:57:05;49.43;;;25.93;;
14088;SDS011;7120;52.890;6.040;2022-12-18T04:59:31;48.93;;;26.00;;
14088;SDS011;7120;52.890;6.040;2022-12-18T05:01:56;59.93;;;27.03;;
14088;SDS011;7120;52.890;6.040;2022-12-18T05:04:21;48.40;;;23.00;;
14088;SDS011;7120;52.890;6.040;2022-12-18T05:06:47;49.40;;;25.07;;
14088;SDS011;7120;52.890;6.040;2022-12-18T05:09:12;47.83;;;24.17;;
14088;SDS011;7120;52.890;6.040;2022-12-18T05:11:38;47.10;;;23.80;;
14088;SDS011;7120;52.890;6.040;2022-12-18T05:14:03;47.27;;;24.27;;
14088;SDS011;7120;52.890;6.040;2022-12-18T05:16:28;45.17;;;24.30;;
14088;SDS011;7120;52.890;6.040;2022-12-18T05:18:54;46.57;;;22.67;;
14088;SDS011;7120;52.890;6.040;2022-12-18T05:21:19;48.83;;;23.53;;
14088;SDS011;7120;52.890;6.040;2022-12-18T05:23:45;49.07;;;22.77;;
14088;SDS011;7120;52.890;6.040;2022-12-18T05:26:14;44.00;;;23.77;;
14088;SDS011;7120;52.890;6.040;2022-12-18T05:28:42;50.27;;;23.43;;
14088;SDS011;7120;52.890;6.040;2022-12-18T05:31:08;43.67;;;21.03;;
14088;SDS011;7120;52.890;6.040;2022-12-18T05:33:34;45.13;;;22.07;;
14088;SDS011;7120;52.890;6.040;2022-12-18T05:36:01;46.20;;;23.43;;
14088;SDS011;7120;52.890;6.040;2022-12-18T05:38:28;41.80;;;21.87;;
14088;SDS011;7120;52.890;6.040;2022-12-18T05:40:54;38.97;;;21.00;;
14088;SDS011;7120;52.890;6.040;2022-12-18T05:43:21;47.60;;;22.23;;
14088;SDS011;7120;52.890;6.040;2022-12-18T05:45:47;40.70;;;20.83;;
14088;SDS011;7120;52.890;6.040;2022-12-18T05:48:12;38.63;;;20.40;;
14088;SDS011;7120;52.890;6.040;2022-12-18T05:50:39;39.07;;;19.83;;
14088;SDS011;7120;52.890;6.040;2022-12-18T05:53:06;35.83;;;20.03;;
14088;SDS011;7120;52.890;6.040;2022-12-18T05:55:32;38.17;;;20.23;;
14088;SDS011;7120;52.890;6.040;2022-12-18T05:57:58;42.30;;;21.17;;
14088;SDS011;7120;52.890;6.040;2022-12-18T06:00:24;41.53;;;21.33;;
14088;SDS011;7120;52.890;6.040;2022-12-18T06:02:49;37.83;;;20.03;;
14088;SDS011;7120;52.890;6.040;2022-12-18T06:05:14;42.67;;;20.50;;
14088;SDS011;7120;52.890;6.040;2022-12-18T06:07:40;43.40;;;20.47;;
14088;SDS011;7120;52.890;6.040;2022-12-18T06:10:05;37.10;;;20.97;;
14088;SDS011;7120;52.890;6.040;2022-12-18T06:12:31;43.33;;;20.90;;
14088;SDS011;7120;52.890;6.040;2022-12-18T06:14:58;38.63;;;20.90;;
14088;SDS011;7120;52.890;6.040;2022-12-18T06:17:27;34.57;;;19.73;;
14088;SDS011;7120;52.890;6.040;2022-12-18T06:19:53;40.20;;;21.67;;
14088;SDS011;7120;52.890;6.040;2022-12-18T06:22:19;40.97;;;19.60;;
14088;SDS011;7120;52.890;6.040;2022-12-18T06:24:44;37.93;;;20.50;;
14088;SDS011;7120;52.890;6.040;2022-12-18T06:27:10;43.13;;;21.93;;
14088;SDS011;7120;52.890;6.040;2022-12-18T06:29:35;39.00;;;21.30;;
14088;SDS011;7120;52.890;6.040;2022-12-18T06:32:00;34.97;;;20.50;;
14088;SDS011;7120;52.890;6.040;2022-12-18T06:34:26;38.70;;;21.27;;
14088;SDS011;7120;52.890;6.040;2022-12-18T06:36:51;34.37;;;18.30;;
14088;SDS011;7120;52.890;6.040;2022-12-18T06:39:16;36.37;;;21.37;;
14088;SDS011;7120;52.890;6.040;2022-12-18T06:41:42;40.47;;;21.40;;
14088;SDS011;7120;52.890;6.040;2022-12-18T06:44:07;38.73;;;20.57;;
14088;SDS011;7120;52.890;6.040;2022-12-18T06:46:32;42.67;;;19.33;;
14088;SDS011;7120;52.890;6.040;2022-12-18T06:48:58;41.30;;;19.77;;
14088;SDS011;7120;52.890;6.040;2022-12-18T06:51:23;34.23;;;19.27;;
14088;SDS011;7120;52.890;6.040;2022-12-18T06:53:49;38.20;;;19.43;;
14088;SDS011;7120;52.890;6.040;2022-12-18T06:56:15;35.27;;;19.53;;
14088;SDS011;7120;52.890;6.040;2022-12-18T06:58:41;38.03;;;20.30;;
14088;SDS011;7120;52.890;6.040;2022-12-18T07:01:08;36.57;;;19.33;;
14088;SDS011;7120;52.890;6.040;2022-12-18T07:03:35;33.63;;;18.53;;
14088;SDS011;7120;52.890;6.040;2022-12-18T07:06:00;32.93;;;19.00;;
14088;SDS011;7120;52.890;6.040;2022-12-18T07:08:26;33.73;;;19.30;;
14088;SDS011;7120;52.890;6.040;2022-12-18T07:10:51;27.10;;;15.43;;
14088;SDS011;7120;52.890;6.040;2022-12-18T07:13:19;33.63;;;18.17;;
14088;SDS011;7120;52.890;6.040;2022-12-18T07:15:44;38.27;;;17.93;;
14088;SDS011;7120;52.890;6.040;2022-12-18T07:18:09;36.07;;;18.90;;
14088;SDS011;7120;52.890;6.040;2022-12-18T07:20:35;31.03;;;17.37;;
14088;SDS011;7120;52.890;6.040;2022-12-18T07:23:03;35.43;;;19.17;;
14088;SDS011;7120;52.890;6.040;2022-12-18T07:25:30;32.73;;;18.97;;
14088;SDS011;7120;52.890;6.040;2022-12-18T07:27:58;29.63;;;17.70;;
14088;SDS011;7120;52.890;6.040;2022-12-18T07:30:24;31.93;;;18.83;;
14088;SDS011;7120;52.890;6.040;2022-12-18T07:32:49;30.13;;;18.07;;
14088;SDS011;7120;52.890;6.040;2022-12-18T07:35:14;30.43;;;17.27;;
14088;SDS011;7120;52.890;6.040;2022-12-18T07:37:40;31.63;;;18.50;;
14088;SDS011;7120;52.890;6.040;2022-12-18T07:40:05;37.10;;;18.83;;
14088;SDS011;7120;52.890;6.040;2022-12-18T07:42:31;30.70;;;17.87;;
14088;SDS011;7120;52.890;6.040;2022-12-18T07:45:00;32.10;;;18.17;;
14088;SDS011;7120;52.890;6.040;2022-12-18T07:47:26;33.73;;;18.77;;
14088;SDS011;7120;52.890;6.040;2022-12-18T07:49:52;39.30;;;20.47;;
14088;SDS011;7120;52.890;6.040;2022-12-18T07:52:18;35.03;;;18.90;;
14088;SDS011;7120;52.890;6.040;2022-12-18T07:54:43;33.27;;;18.97;;
14088;SDS011;7120;52.890;6.040;2022-12-18T07:57:08;35.13;;;17.63;;
14088;SDS011;7120;52.890;6.040;2022-12-18T07:59:34;32.53;;;18.87;;
14088;SDS011;7120;52.890;6.040;2022-12-18T08:02:00;36.33;;;19.03;;
14088;SDS011;7120;52.890;6.040;2022-12-18T08:04:26;33.90;;;19.20;;
14088;SDS011;7120;52.890;6.040;2022-12-18T08:06:52;31.13;;;18.73;;
14088;SDS011;7120;52.890;6.040;2022-12-18T08:09:17;34.50;;;18.10;;
14088;SDS011;7120;52.890;6.040;2022-12-18T08:11:42;37.57;;;19.57;;
14088;SDS011;7120;52.890;6.040;2022-12-18T08:14:09;33.90;;;18.77;;
14088;SDS011;7120;52.890;6.040;2022-12-18T08:16:35;33.00;;;19.40;;
14088;SDS011;7120;52.890;6.040;2022-12-18T08:19:00;35.37;;;18.33;;
14088;SDS011;7120;52.890;6.040;2022-12-18T08:21:27;35.70;;;19.47;;
14088;SDS011;7120;52.890;6.040;2022-12-18T08:23:56;33.60;;;18.23;;
14088;SDS011;7120;52.890;6.040;2022-12-18T08:26:24;33.40;;;19.87;;
14088;SDS011;7120;52.890;6.040;2022-12-18T08:28:51;32.10;;;19.60;;
14088;SDS011;7120;52.890;6.040;2022-12-18T08:31:18;28.07;;;18.40;;
14088;SDS011;7120;52.890;6.040;2022-12-18T08:33:43;33.43;;;18.53;;
14088;SDS011;7120;52.890;6.040;2022-12-18T08:36:09;32.63;;;18.20;;
14088;SDS011;7120;52.890;6.040;2022-12-18T08:38:35;35.20;;;18.67;;
14088;SDS011;7120;52.890;6.040;2022-12-18T08:41:07;30.23;;;18.93;;
14088;SDS011;7120;52.890;6.040;2022-12-18T08:43:35;28.93;;;18.63;;
14088;SDS011;7120;52.890;6.040;2022-12-18T08:46:19;29.70;;;18.10;;
14088;SDS011;7120;52.890;6.040;2022-12-18T08:48:45;32.93;;;19.83;;
14088;SDS011;7120;52.890;6.040;2022-12-18T08:51:12;31.47;;;18.70;;
14088;SDS011;7120;52.890;6.040;2022-12-18T08:53:37;25.27;;;16.50;;
14088;SDS011;7120;52.890;6.040;2022-12-18T08:56:03;30.60;;;18.57;;
14088;SDS011;7120;52.890;6.040;2022-12-18T08:58:29;23.67;;;14.50;;
14088;SDS011;7120;52.890;6.040;2022-12-18T09:01:05;28.03;;;17.70;;
14088;SDS011;7120;52.890;6.040;2022-12-18T09:03:33;30.40;;;17.53;;
14088;SDS011;7120;52.890;6.040;2022-12-18T09:05:59;24.33;;;16.70;;
14088;SDS011;7120;52.890;6.040;2022-12-18T09:08:25;28.27;;;17.73;;
14088;SDS011;7120;52.890;6.040;2022-12-18T09:10:51;28.40;;;16.93;;
14088;SDS011;7120;52.890;6.040;2022-12-18T09:13:17;28.97;;;17.17;;
14088;SDS011;7120;52.890;6.040;2022-12-18T09:15:43;25.37;;;18.20;;
14088;SDS011;7120;52.890;6.040;2022-12-18T09:18:10;23.57;;;16.07;;
14088;SDS011;7120;52.890;6.040;2022-12-18T09:20:36;22.07;;;16.37;;
14088;SDS011;7120;52.890;6.040;2022-12-18T09:23:02;26.43;;;16.70;;
14088;SDS011;7120;52.890;6.040;2022-12-18T09:25:28;28.37;;;16.50;;
14088;SDS011;7120;52.890;6.040;2022-12-18T09:28:05;23.27;;;15.77;;
14088;SDS011;7120;52.890;6.040;2022-12-18T09:30:36;22.93;;;15.60;;
14088;SDS011;7120;52.890;6.040;2022-12-18T09:33:06;26.37;;;16.83;;
14088;SDS011;7120;52.890;6.040;2022-12-18T09:35:40;24.77;;;16.10;;
14088;SDS011;7120;52.890;6.040;2022-12-18T09:38:06;23.07;;;15.67;;
14088;SDS011;7120;52.890;6.040;2022-12-18T09:40:39;21.30;;;14.97;;
14088;SDS011;7120;52.890;6.040;2022-12-18T09:43:11;22.67;;;14.70;;
14088;SDS011;7120;52.890;6.040;2022-12-18T09:45:42;22.37;;;14.73;;
14088;SDS011;7120;52.890;6.040;2022-12-18T09:48:15;20.67;;;14.90;;
14088;SDS011;7120;52.890;6.040;2022-12-18T09:50:48;21.70;;;14.93;;
14088;SDS011;7120;52.890;6.040;2022-12-18T09:53:16;20.77;;;14.57;;
14088;SDS011;7120;52.890;6.040;2022-12-18T09:55:45;21.33;;;15.37;;
14088;SDS011;7120;52.890;6.040;2022-12-18T10:00:44;22.70;;;14.67;;
14088;SDS011;7120;52.890;6.040;2022-12-18T10:03:10;21.37;;;14.77;;
14088;SDS011;7120;52.890;6.040;2022-12-18T10:16:57;17.17;;;12.97;;
14088;SDS011;7120;52.890;6.040;2022-12-18T10:25:54;16.13;;;11.83;;
14088;SDS011;7120;52.890;6.040;2022-12-18T10:27:53;20.33;;;12.47;;
14088;SDS011;7120;52.890;6.040;2022-12-18T10:30:23;15.97;;;13.03;;
14088;SDS011;7120;52.890;6.040;2022-12-18T10:32:50;17.40;;;12.20;;
14088;SDS011;7120;52.890;6.040;2022-12-18T10:35:18;15.17;;;12.20;;
14088;SDS011;7120;52.890;6.040;2022-12-18T10:40:31;16.63;;;12.13;;
14088;SDS011;7120;52.890;6.040;2022-12-18T10:43:05;15.07;;;11.70;;
14088;SDS011;7120;52.890;6.040;2022-12-18T10:45:37;17.80;;;11.80;;
14088;SDS011;7120;52.890;6.040;2022-12-18T10:48:03;14.20;;;11.10;;
14088;SDS011;7120;52.890;6.040;2022-12-18T10:50:33;14.00;;;10.93;;
14088;SDS011;7120;52.890;6.040;2022-12-18T10:53:03;14.00;;;10.33;;
14088;SDS011;7120;52.890;6.040;2022-12-18T10:55:31;14.97;;;10.73;;
14088;SDS011;7120;52.890;6.040;2022-12-18T11:01:01;13.43;;;9.80;;
14088;SDS011;7120;52.890;6.040;2022-12-18T11:03:42;12.00;;;8.83;;
14088;SDS011;7120;52.890;6.040;2022-12-18T11:06:13;11.70;;;8.67;;
14088;SDS011;7120;52.890;6.040;2022-12-18T11:08:41;13.33;;;8.97;;
14088;SDS011;7120;52.890;6.040;2022-12-18T11:11:17;13.30;;;9.57;;
14088;SDS011;7120;52.890;6.040;2022-12-18T11:14:05;12.73;;;9.07;;
14088;SDS011;7120;52.890;6.040;2022-12-18T11:16:46;12.17;;;9.00;;
14088;SDS011;7120;52.890;6.040;2022-12-18T11:19:28;11.47;;;8.67;;
14088;SDS011;7120;52.890;6.040;2022-12-18T11:22:00;12.70;;;8.80;;
14088;SDS011;7120;52.890;6.040;2022-12-18T11:26:57;12.13;;;8.87;;
14088;SDS011;7120;52.890;6.040;2022-12-18T11:29:33;10.27;;;8.67;;
14088;SDS011;7120;52.890;6.040;2022-12-18T11:35:10;10.07;;;8.20;;
14088;SDS011;7120;52.890;6.040;2022-12-18T11:37:41;9.83;;;8.13;;
14088;SDS011;7120;52.890;6.040;2022-12-18T11:40:15;11.07;;;8.97;;
14088;SDS011;7120;52.890;6.040;2022-12-18T11:45:26;9.13;;;7.43;;
14088;SDS011;7120;52.890;6.040;2022-12-18T11:48:01;9.80;;;7.20;;
14088;SDS011;7120;52.890;6.040;2022-12-18T11:50:53;11.67;;;8.03;;
14088;SDS011;7120;52.890;6.040;2022-12-18T11:53:25;9.20;;;7.37;;
14088;SDS011;7120;52.890;6.040;2022-12-18T11:56:13;9.53;;;7.30;;
14088;SDS011;7120;52.890;6.040;2022-12-18T11:59:05;9.83;;;8.10;;
14088;SDS011;7120;52.890;6.040;2022-12-18T12:06:51;10.33;;;8.67;;
14088;SDS011;7120;52.890;6.040;2022-12-18T12:09:33;9.40;;;7.40;;
14088;SDS011;7120;52.890;6.040;2022-12-18T12:15:24;8.73;;;7.37;;
14088;SDS011;7120;52.890;6.040;2022-12-18T12:18:05;9.53;;;7.90;;
14088;SDS011;7120;52.890;6.040;2022-12-18T12:20:49;11.53;;;7.73;;
14088;SDS011;7120;52.890;6.040;2022-12-18T12:31:16;12.23;;;7.97;;
14088;SDS011;7120;52.890;6.040;2022-12-18T12:34:09;12.80;;;7.83;;
14088;SDS011;7120;52.890;6.040;2022-12-18T12:39:54;9.57;;;7.03;;
14088;SDS011;7120;52.890;6.040;2022-12-18T12:42:24;8.07;;;7.20;;
14088;SDS011;7120;52.890;6.040;2022-12-18T12:45:18;8.77;;;7.87;;
14088;SDS011;7120;52.890;6.040;2022-12-18T12:47:49;10.20;;;7.80;;
14088;SDS011;7120;52.890;6.040;2022-12-18T12:50:18;9.87;;;8.23;;
14088;SDS011;7120;52.890;6.040;2022-12-18T12:52:52;9.93;;;7.90;;
14088;SDS011;7120;52.890;6.040;2022-12-18T12:55:21;10.00;;;7.57;;
14088;SDS011;7120;52.890;6.040;2022-12-18T12:57:53;9.13;;;7.60;;
14088;SDS011;7120;52.890;6.040;2022-12-18T13:00:20;10.07;;;7.30;;
14088;SDS011;7120;52.890;6.040;2022-12-18T13:03:02;9.53;;;7.27;;
14088;SDS011;7120;52.890;6.040;2022-12-18T13:05:38;9.33;;;6.77;;
14088;SDS011;7120;52.890;6.040;2022-12-18T13:08:11;9.30;;;7.50;;
14088;SDS011;7120;52.890;6.040;2022-12-18T13:10:47;7.33;;;6.27;;
14088;SDS011;7120;52.890;6.040;2022-12-18T13:13:13;10.77;;;7.03;;
14088;SDS011;7120;52.890;6.040;2022-12-18T13:15:44;8.73;;;7.33;;
14088;SDS011;7120;52.890;6.040;2022-12-18T13:25:54;8.43;;;7.10;;
14088;SDS011;7120;52.890;6.040;2022-12-18T13:31:11;8.30;;;6.80;;
14088;SDS011;7120;52.890;6.040;2022-12-18T13:33:38;8.53;;;7.33;;
14088;SDS011;7120;52.890;6.040;2022-12-18T13:36:11;8.70;;;6.93;;
14088;SDS011;7120;52.890;6.040;2022-12-18T13:38:40;8.27;;;7.20;;
14088;SDS011;7120;52.890;6.040;2022-12-18T13:49:02;7.17;;;6.23;;
14088;SDS011;7120;52.890;6.040;2022-12-18T13:51:32;8.37;;;6.10;;
14088;SDS011;7120;52.890;6.040;2022-12-18T13:54:01;8.87;;;6.13;;
14088;SDS011;7120;52.890;6.040;2022-12-18T13:56:31;7.97;;;6.20;;
14088;SDS011;7120;52.890;6.040;2022-12-18T13:59:14;7.83;;;5.87;;
14088;SDS011;7120;52.890;6.040;2022-12-18T14:01:46;7.90;;;6.60;;
14088;SDS011;7120;52.890;6.040;2022-12-18T14:04:24;8.60;;;6.33;;
14088;SDS011;7120;52.890;6.040;2022-12-18T14:07:19;9.27;;;6.47;;
14088;SDS011;7120;52.890;6.040;2022-12-18T14:09:57;7.40;;;6.03;;
14088;SDS011;7120;52.890;6.040;2022-12-18T14:12:32;7.60;;;5.80;;
14088;SDS011;7120;52.890;6.040;2022-12-18T14:17:57;8.93;;;6.10;;
14088;SDS011;7120;52.890;6.040;2022-12-18T14:20:24;7.80;;;5.67;;
14088;SDS011;7120;52.890;6.040;2022-12-18T14:22:51;7.17;;;5.87;;
14088;SDS011;7120;52.890;6.040;2022-12-18T14:25:20;6.93;;;5.67;;
14088;SDS011;7120;52.890;6.040;2022-12-18T14:27:51;8.60;;;5.77;;
14088;SDS011;7120;52.890;6.040;2022-12-18T14:33:10;6.67;;;5.87;;
14088;SDS011;7120;52.890;6.040;2022-12-18T14:35:42;9.03;;;6.50;;
14088;SDS011;7120;52.890;6.040;2022-12-18T14:38:21;6.63;;;5.33;;
14088;SDS011;7120;52.890;6.040;2022-12-18T14:40:53;7.33;;;5.83;;
14088;SDS011;7120;52.890;6.040;2022-12-18T14:43:20;7.40;;;5.97;;
14088;SDS011;7120;52.890;6.040;2022-12-18T14:45:46;8.43;;;5.83;;
14088;SDS011;7120;52.890;6.040;2022-12-18T14:53:40;6.03;;;5.30;;
14088;SDS011;7120;52.890;6.040;2022-12-18T14:58:43;7.67;;;5.57;;
14088;SDS011;7120;52.890;6.040;2022-12-18T15:01:17;7.03;;;5.97;;
14088;SDS011;7120;52.890;6.040;2022-12-18T15:03:43;6.87;;;5.53;;
14088;SDS011;7120;52.890;6.040;2022-12-18T15:06:24;7.03;;;5.50;;
14088;SDS011;7120;52.890;6.040;2022-12-18T15:08:53;8.00;;;5.47;;
14088;SDS011;7120;52.890;6.040;2022-12-18T15:11:26;6.73;;;5.43;;
14088;SDS011;7120;52.890;6.040;2022-12-18T15:13:54;7.80;;;5.90;;
14088;SDS011;7120;52.890;6.040;2022-12-18T15:16:19;6.43;;;5.20;;
14088;SDS011;7120;52.890;6.040;2022-12-18T15:18:46;7.83;;;5.80;;
14088;SDS011;7120;52.890;6.040;2022-12-18T15:21:16;8.37;;;5.53;;
14088;SDS011;7120;52.890;6.040;2022-12-18T15:26:09;7.47;;;5.17;;
14088;SDS011;7120;52.890;6.040;2022-12-18T15:28:54;5.73;;;5.13;;
14088;SDS011;7120;52.890;6.040;2022-12-18T15:31:32;7.83;;;6.33;;
14088;SDS011;7120;52.890;6.040;2022-12-18T15:36:34;6.87;;;4.90;;
14088;SDS011;7120;52.890;6.040;2022-12-18T15:39:02;7.00;;;5.50;;
14088;SDS011;7120;52.890;6.040;2022-12-18T15:41:30;6.43;;;5.63;;
14088;SDS011;7120;52.890;6.040;2022-12-18T15:43:58;6.37;;;5.17;;
14088;SDS011;7120;52.890;6.040;2022-12-18T15:48:35;6.60;;;5.17;;
14088;SDS011;7120;52.890;6.040;2022-12-18T15:51:10;8.30;;;5.17;;
14088;SDS011;7120;52.890;6.040;2022-12-18T15:53:45;7.10;;;5.43;;
14088;SDS011;7120;52.890;6.040;2022-12-18T15:56:12;6.13;;;5.50;;
14088;SDS011;7120;52.890;6.040;2022-12-18T15:58:58;6.43;;;5.60;;
14088;SDS011;7120;52.890;6.040;2022-12-18T16:01:25;7.67;;;5.57;;
14088;SDS011;7120;52.890;6.040;2022-12-18T16:03:52;8.23;;;6.53;;
14088;SDS011;7120;52.890;6.040;2022-12-18T16:06:19;6.93;;;5.63;;
14088;SDS011;7120;52.890;6.040;2022-12-18T16:08:44;6.97;;;5.20;;
14088;SDS011;7120;52.890;6.040;2022-12-18T16:11:20;5.87;;;5.27;;
14088;SDS011;7120;52.890;6.040;2022-12-18T16:14:12;7.53;;;5.63;;
14088;SDS011;7120;52.890;6.040;2022-12-18T16:16:42;6.40;;;5.07;;
14088;SDS011;7120;52.890;6.040;2022-12-18T16:19:07;7.30;;;5.73;;
14088;SDS011;7120;52.890;6.040;2022-12-18T16:21:32;7.37;;;6.00;;
14088;SDS011;7120;52.890;6.040;2022-12-18T16:23:58;7.47;;;6.13;;
14088;SDS011;7120;52.890;6.040;2022-12-18T16:26:23;7.53;;;6.30;;
14088;SDS011;7120;52.890;6.040;2022-12-18T16:28:49;7.73;;;6.00;;
14088;SDS011;7120;52.890;6.040;2022-12-18T16:31:14;7.00;;;6.13;;
14088;SDS011;7120;52.890;6.040;2022-12-18T16:33:40;7.87;;;5.53;;
14088;SDS011;7120;52.890;6.040;2022-12-18T16:36:05;7.97;;;5.73;;
14088;SDS011;7120;52.890;6.040;2022-12-18T16:38:31;8.13;;;6.03;;
14088;SDS011;7120;52.890;6.040;2022-12-18T16:40:59;9.07;;;5.67;;
14088;SDS011;7120;52.890;6.040;2022-12-18T16:43:43;8.67;;;6.07;;
14088;SDS011;7120;52.890;6.040;2022-12-18T16:46:09;7.83;;;5.47;;
14088;SDS011;7120;52.890;6.040;2022-12-18T16:48:34;8.50;;;6.27;;
14088;SDS011;7120;52.890;6.040;2022-12-18T16:51:02;7.20;;;5.53;;